createdAt,value
2022-10-02T00:02:40.575Z,145429.63
2022-10-02T00:05:37.967Z,145427.19
2022-10-02T00:08:12.335Z,145415.03
2022-10-02T00:10:52.994Z,145387.09
2022-10-02T00:13:24.894Z,145390.75
2022-10-02T00:15:53.368Z,145348.28
2022-10-02T00:18:24.527Z,145406.56
2022-10-02T00:21:06.966Z,145412.63
2022-10-02T00:23:46.431Z,145418.69
2022-10-02T00:26:59.943Z,145422.31
2022-10-02T00:29:31.381Z,145427.19
2022-10-02T00:32:01.058Z,145444.19
2022-10-02T00:34:34.347Z,145453.91
2022-10-02T00:37:16.296Z,145455.09
2022-10-02T00:40:35.490Z,145463.63
2022-10-02T00:43:26.943Z,145468.47
2022-10-02T00:46:24.514Z,145475.78
2022-10-02T00:49:09.536Z,145473.31
2022-10-02T00:52:02.809Z,145483.03
2022-10-02T00:55:03.280Z,145469.66
2022-10-02T00:57:50.560Z,145459.97
2022-10-02T01:00:19.204Z,145455.09
2022-10-02T01:03:10.315Z,145463.63
2022-10-02T01:05:38.060Z,145401.72
2022-10-02T01:08:06.103Z,145470.91
2022-10-02T01:10:34.221Z,145483.03
2022-10-02T01:13:01.387Z,145475.78
2022-10-02T01:15:31.991Z,145475.78
2022-10-02T01:17:59.261Z,145492.78
2022-10-02T01:20:37.912Z,145473.31
2022-10-02T01:23:04.832Z,145468.47
2022-10-02T01:25:32.276Z,145441.75
2022-10-02T01:27:59.608Z,145464.81
2022-10-02T01:30:29.659Z,145473.31
2022-10-02T01:32:59.757Z,145498.84
2022-10-02T01:35:33.817Z,145484.28
2022-10-02T01:38:05.868Z,145529.22
2022-10-02T01:40:35.044Z,145521.91
2022-10-02T01:43:16.808Z,145543.78
2022-10-02T01:45:53.240Z,145560.75
2022-10-02T01:48:52.478Z,145570.50
2022-10-02T01:51:32.231Z,145552.28
2022-10-02T01:54:25.465Z,145538.94
2022-10-02T01:57:13.810Z,145575.38
2022-10-02T01:59:53.558Z,145589.94
2022-10-02T02:02:25.111Z,145580.22
2022-10-02T02:05:05.132Z,145599.66
2022-10-02T02:08:07.515Z,145620.31
2022-10-02T02:10:46.912Z,145611.81
2022-10-02T02:13:21.221Z,145631.25
2022-10-02T02:15:54.525Z,145651.88
2022-10-02T02:18:46.371Z,145604.50
2022-10-02T02:21:22.085Z,145662.84
2022-10-02T02:23:50.713Z,145665.25
2022-10-02T02:26:19.884Z,145672.56
2022-10-02T02:28:52.647Z,145667.69
2022-10-02T02:31:24.007Z,145638.56
2022-10-02T02:33:59.605Z,145688.31
2022-10-02T02:36:41.304Z,145705.41
2022-10-02T02:39:12.921Z,145721.22
2022-10-02T02:41:48.993Z,145716.38
2022-10-02T02:44:24.170Z,145691.97
2022-10-02T02:47:04.657Z,145684.72
2022-10-02T02:50:00.280Z,145700.53
2022-10-02T02:52:41.637Z,145733.34
2022-10-02T02:55:18.319Z,145744.31
2022-10-02T02:58:04.202Z,145743.06
2022-10-02T03:00:31.311Z,145735.78
2022-10-02T03:02:58.480Z,145745.50
2022-10-02T03:05:25.640Z,145766.16
2022-10-02T03:08:03.833Z,145751.56
2022-10-02T03:10:46.833Z,145750.38
2022-10-02T03:13:44.313Z,145844.00
2022-10-02T03:16:45.996Z,145876.81
2022-10-02T03:19:37.373Z,145862.22
2022-10-02T03:22:07.941Z,145919.34
2022-10-02T03:24:52.944Z,145940.03
2022-10-02T03:27:37.477Z,145940.03
2022-10-02T03:30:11.494Z,145961.91
2022-10-02T03:32:40.761Z,145974.06
2022-10-02T03:35:14.336Z,145969.22
2022-10-02T03:37:46.932Z,145978.94
2022-10-02T03:40:13.883Z,145983.81
2022-10-02T03:42:40.937Z,145988.66
2022-10-02T03:45:08.742Z,145993.53
2022-10-02T03:47:35.703Z,146005.69
2022-10-02T03:50:02.913Z,145999.63
2022-10-02T03:52:31.624Z,145991.13
2022-10-02T03:55:03.230Z,145995.97
2022-10-02T03:57:33.949Z,146011.78
2022-10-02T04:00:21.946Z,146008.16
2022-10-02T04:02:51.688Z,146000.84
2022-10-02T04:05:26.436Z,146015.41
2022-10-02T04:08:03.173Z,146037.31
2022-10-02T04:11:08.629Z,146030.00
2022-10-02T04:13:39.889Z,146036.13
2022-10-02T04:16:17.581Z,146026.41
2022-10-02T04:18:55.519Z,145982.59
2022-10-02T04:21:34.834Z,146044.66
2022-10-02T04:24:31.936Z,146066.50
2022-10-02T04:27:07.709Z,146082.38
2022-10-02T04:29:45.009Z,146041.00
2022-10-02T04:32:15.041Z,146088.47
2022-10-02T04:34:42.650Z,146082.38
2022-10-02T04:37:28.483Z,146107.91
2022-10-02T04:39:55.478Z,146120.09
2022-10-02T04:42:59.621Z,146127.41
2022-10-02T04:45:47.909Z,146101.84
2022-10-02T04:48:46.301Z,146110.38
2022-10-02T04:51:40.274Z,146117.69
2022-10-02T04:54:22.405Z,146142.00
2022-10-02T04:56:52.503Z,146140.81
2022-10-02T04:59:32.948Z,146137.13
2022-10-02T05:02:11.510Z,146137.13
2022-10-02T05:05:05.354Z,146137.13
2022-10-02T05:07:56.872Z,146165.13
2022-10-02T05:10:48.642Z,146149.28
2022-10-02T05:13:42.822Z,146151.72
2022-10-02T05:16:37.210Z,146145.66
2022-10-02T05:19:15.291Z,146144.41
2022-10-02T05:21:57.148Z,146156.59
2022-10-02T05:24:34.796Z,146161.47
2022-10-02T05:27:10.697Z,146167.53
2022-10-02T05:30:07.549Z,146169.97
2022-10-02T05:32:43.608Z,146167.53
2022-10-02T05:35:59.037Z,146180.91
2022-10-02T05:38:32.137Z,146172.44
2022-10-02T05:41:16.029Z,146180.91
2022-10-02T05:44:02.545Z,146193.09
2022-10-02T05:46:37.134Z,146144.41
2022-10-02T05:49:17.109Z,146217.44
2022-10-02T05:52:02.940Z,146222.28
2022-10-02T05:54:55.407Z,146224.75
2022-10-02T05:57:26.932Z,146219.88
2022-10-02T06:00:08.628Z,146225.97
2022-10-02T06:02:57.192Z,146229.63
2022-10-02T06:05:40.635Z,146222.28
2022-10-02T06:08:13.436Z,146236.94
2022-10-02T06:10:49.264Z,146255.19
2022-10-02T06:13:35.607Z,146244.22
2022-10-02T06:16:14.599Z,146219.88
2022-10-02T06:18:46.346Z,146266.13
2022-10-02T06:21:45.579Z,146285.59
2022-10-02T06:24:20.317Z,146277.06
2022-10-02T06:27:00.982Z,146290.47
2022-10-02T06:29:34.489Z,146266.13
2022-10-02T06:32:52.995Z,146292.91
2022-10-02T06:35:28.969Z,146295.31
2022-10-02T06:37:56.574Z,146302.66
2022-10-02T06:40:32.760Z,146322.13
2022-10-02T06:43:14.026Z,146336.75
2022-10-02T06:46:03.809Z,146324.56
2022-10-02T06:49:04.201Z,146346.50
2022-10-02T06:52:03.064Z,146311.19
2022-10-02T06:55:08.548Z,146390.31
2022-10-02T06:58:03.453Z,146383.03
2022-10-02T07:00:34.777Z,146361.09
2022-10-02T07:03:09.095Z,146284.38
2022-10-02T07:06:16.011Z,146353.78
2022-10-02T07:08:55.203Z,146392.75
2022-10-02T07:11:35.082Z,146402.50
2022-10-02T07:14:28.737Z,146424.47
2022-10-02T07:17:05.101Z,146434.19
2022-10-02T07:19:58.626Z,146435.41
2022-10-02T07:22:45.469Z,146463.41
2022-10-02T07:25:34.358Z,146487.81
2022-10-02T07:28:30.750Z,146474.41
2022-10-02T07:31:18.171Z,146492.66
2022-10-02T07:34:07.213Z,146512.16
2022-10-02T07:36:59.583Z,146534.09
2022-10-02T07:39:33.077Z,146558.44
2022-10-02T07:42:15.876Z,146575.50
2022-10-02T07:44:49.873Z,146564.50
2022-10-02T07:47:27.263Z,146597.44
2022-10-02T07:50:03.983Z,146592.56
2022-10-02T07:52:39.983Z,146575.50
2022-10-02T07:55:16.417Z,146557.22
2022-10-02T07:58:02.376Z,146546.22
2022-10-02T08:00:39.870Z,146510.94
2022-10-02T08:03:18.114Z,146503.63
2022-10-02T08:05:49.189Z,146424.47
2022-10-02T08:08:26.128Z,146531.63
2022-10-02T08:11:09.165Z,146541.38
2022-10-02T08:13:44.756Z,146541.38
2022-10-02T08:16:14.731Z,146553.56
2022-10-02T08:18:48.130Z,146534.09
2022-10-02T08:21:19.525Z,146523.09
2022-10-02T08:23:53.224Z,146497.53
2022-10-02T08:26:39.301Z,146492.66
2022-10-02T08:29:19.602Z,146457.34
2022-10-02T08:31:47.131Z,146490.22
2022-10-02T08:34:20.834Z,146480.47
2022-10-02T08:37:15.541Z,146485.34
2022-10-02T08:40:04.235Z,146473.16
2022-10-02T08:42:37.027Z,146446.41
2022-10-02T08:45:04.026Z,146451.25
2022-10-02T08:48:22.522Z,146417.13
2022-10-02T08:51:27.338Z,146314.84
2022-10-02T08:53:57.262Z,146450.00
2022-10-02T08:56:36.276Z,146464.66
2022-10-02T08:59:21.741Z,146509.69
2022-10-02T09:02:21.086Z,146529.22
2022-10-02T09:05:06.901Z,146559.63
2022-10-02T09:08:07.964Z,146526.75
2022-10-02T09:10:52.128Z,146590.09
2022-10-02T09:13:50.568Z,146574.28
2022-10-02T09:16:32.701Z,146640.06
2022-10-02T09:19:10.027Z,146726.63
2022-10-02T09:21:52.520Z,146769.28
2022-10-02T09:24:46.486Z,146775.41
2022-10-02T09:27:22.678Z,146831.47
2022-10-02T09:30:08.056Z,146865.59
2022-10-02T09:32:57.314Z,146885.13
2022-10-02T09:36:02.079Z,146825.34
2022-10-02T09:38:38.978Z,146775.41
2022-10-02T09:41:27.801Z,146798.56
2022-10-02T09:44:12.987Z,146832.69
2022-10-02T09:46:58.133Z,146822.94
2022-10-02T09:49:48.063Z,146842.44
2022-10-02T09:52:24.189Z,146852.16
2022-10-02T09:55:03.533Z,146800.97
2022-10-02T09:57:59.201Z,146770.50
2022-10-02T10:00:35.050Z,146724.19
2022-10-02T10:03:16.940Z,146722.97
2022-10-02T10:06:03.013Z,146688.81
2022-10-02T10:08:48.025Z,146659.56
2022-10-02T10:11:36.335Z,146652.28
2022-10-02T10:14:18.656Z,146660.75
2022-10-02T10:17:05.582Z,146641.28
2022-10-02T10:20:06.450Z,146698.56
2022-10-02T10:22:57.778Z,146719.31
2022-10-02T10:25:50.120Z,146763.19
2022-10-02T10:28:47.037Z,146796.09
2022-10-02T10:31:24.241Z,146892.41
2022-10-02T10:34:29.028Z,146886.34
2022-10-02T10:37:16.620Z,146885.13
2022-10-02T10:40:38.433Z,146877.78
2022-10-02T10:43:51.564Z,146887.53
2022-10-02T10:46:46.151Z,146864.38
2022-10-02T10:49:39.169Z,146843.63
2022-10-02T10:52:13.974Z,146841.22
2022-10-02T10:55:05.882Z,146844.88
2022-10-02T10:57:51.268Z,146841.22
2022-10-02T11:00:25.109Z,146841.22
2022-10-02T11:03:08.069Z,146894.88
2022-10-02T11:06:09.336Z,147010.78
2022-10-02T11:09:24.017Z,147018.09
2022-10-02T11:12:28.105Z,147055.91
2022-10-02T11:15:01.187Z,147036.41
2022-10-02T11:17:43.368Z,147077.88
2022-10-02T11:20:24.792Z,147029.06
2022-10-02T11:23:06.205Z,146931.47
2022-10-02T11:25:59.538Z,146792.44
2022-10-02T11:28:50.025Z,146841.22
2022-10-02T11:31:33.047Z,146829.00
2022-10-02T11:34:19.733Z,146825.34
2022-10-02T11:37:09.520Z,146824.13
2022-10-02T11:40:15.554Z,146904.63
2022-10-02T11:43:13.853Z,146991.25
2022-10-02T11:46:11.998Z,147082.75
2022-10-02T11:49:20.165Z,146992.47
2022-10-02T11:51:52.866Z,146892.41
2022-10-02T11:54:19.873Z,146953.38
2022-10-02T11:57:01.827Z,147002.22
2022-10-02T11:59:39.376Z,146911.91
2022-10-02T12:02:26.250Z,146943.63
2022-10-02T12:05:13.242Z,147021.72
2022-10-02T12:08:01.541Z,147068.06
2022-10-02T12:10:44.721Z,146960.72
2022-10-02T12:13:37.626Z,147048.56
2022-10-02T12:16:22.930Z,147015.66
2022-10-02T12:18:52.941Z,147124.22
2022-10-02T12:22:03.718Z,147070.53
2022-10-02T12:25:30.852Z,147169.38
2022-10-02T12:28:36.122Z,147091.28
2022-10-02T12:31:27.907Z,147077.88
2022-10-02T12:34:11.064Z,147141.28
2022-10-02T12:36:56.457Z,147155.97
2022-10-02T12:39:26.544Z,147180.34
2022-10-02T12:42:02.412Z,147149.81
2022-10-02T12:44:48.665Z,147180.34
2022-10-02T12:47:18.351Z,147192.56
2022-10-02T12:50:11.069Z,147143.75
2022-10-02T12:53:05.332Z,147112.00
2022-10-02T12:55:57.276Z,147118.09
2022-10-02T12:58:26.931Z,147148.63
2022-10-02T13:01:12.253Z,147165.72
2022-10-02T13:04:06.953Z,147179.13
2022-10-02T13:07:13.514Z,147185.22
2022-10-02T13:09:47.268Z,147187.69
2022-10-02T13:12:29.260Z,147169.38
2022-10-02T13:15:02.754Z,147249.94
2022-10-02T13:17:47.656Z,147251.16
2022-10-02T13:20:42.742Z,147269.47
2022-10-02T13:23:12.958Z,147270.72
2022-10-02T13:25:58.661Z,147229.19
2022-10-02T13:28:41.081Z,147202.31
2022-10-02T13:31:39.048Z,147246.28
2022-10-02T13:34:15.543Z,147190.09
2022-10-02T13:36:56.712Z,147237.72
2022-10-02T13:39:33.640Z,147225.50
2022-10-02T13:42:11.439Z,147227.91
2022-10-02T13:44:44.530Z,147251.16
2022-10-02T13:47:17.327Z,147253.63
2022-10-02T13:50:26.637Z,147241.34
2022-10-02T13:53:14.014Z,147253.63
2022-10-02T13:56:15.434Z,147192.56
2022-10-02T13:59:04.305Z,147204.72
2022-10-02T14:02:02.656Z,147256.06
2022-10-02T14:05:03.416Z,147275.59
2022-10-02T14:07:54.945Z,147317.09
2022-10-02T14:10:53.396Z,147335.41
2022-10-02T14:13:43.669Z,147271.94
2022-10-02T14:16:25.587Z,147231.59
2022-10-02T14:19:24.689Z,147185.22
2022-10-02T14:22:10.517Z,147212.06
2022-10-02T14:25:17.066Z,147114.47
2022-10-02T14:28:17.080Z,147186.44
2022-10-02T14:30:51.953Z,147162.03
2022-10-02T14:33:24.994Z,147186.44
2022-10-02T14:36:05.145Z,147231.59
2022-10-02T14:38:45.632Z,147248.75
2022-10-02T14:41:24.749Z,147265.84
2022-10-02T14:44:13.564Z,147240.16
2022-10-02T14:46:59.366Z,147238.94
2022-10-02T14:49:35.302Z,147234.06
2022-10-02T14:52:28.484Z,147225.50
2022-10-02T14:55:26.615Z,147238.94
2022-10-02T14:58:41.157Z,147180.34
2022-10-02T15:01:10.463Z,147212.06
2022-10-02T15:04:00.980Z,147201.13
2022-10-02T15:06:52.349Z,147158.38
2022-10-02T15:09:28.447Z,147082.75
2022-10-02T15:12:14.105Z,147119.34
2022-10-02T15:15:08.986Z,147082.75
2022-10-02T15:17:57.384Z,147041.28
2022-10-02T15:20:38.240Z,147048.56
2022-10-02T15:23:11.829Z,147048.56
2022-10-02T15:25:38.761Z,147014.44
2022-10-02T15:28:35.961Z,146924.13
2022-10-02T15:31:35.816Z,147016.84
2022-10-02T15:34:31.033Z,147048.56
2022-10-02T15:37:22.888Z,147041.28
2022-10-02T15:40:16.775Z,147026.59
2022-10-02T15:42:52.377Z,147014.44
2022-10-02T15:45:47.999Z,147060.78
2022-10-02T15:48:21.130Z,147065.66
2022-10-02T15:50:53.920Z,147033.94
2022-10-02T15:53:42.993Z,146980.22
2022-10-02T15:56:32.991Z,146977.78
2022-10-02T15:59:17.389Z,146982.69
2022-10-02T16:02:10.098Z,146943.63
2022-10-02T16:04:39.921Z,146947.28
2022-10-02T16:07:30.223Z,146922.91
2022-10-02T16:10:08.574Z,146936.34
2022-10-02T16:12:35.485Z,146931.47
2022-10-02T16:15:25.417Z,146964.38
2022-10-02T16:18:04.620Z,146980.22
2022-10-02T16:20:44.860Z,147010.78
2022-10-02T16:23:54.729Z,147013.19
2022-10-02T16:26:43.601Z,146910.72
2022-10-02T16:29:26.756Z,147011.97
2022-10-02T16:32:30.930Z,147027.84
2022-10-02T16:35:18.165Z,147004.69
2022-10-02T16:38:06.291Z,146982.69
2022-10-02T16:40:58.911Z,146982.69
2022-10-02T16:43:58.806Z,146997.34
2022-10-02T16:46:37.339Z,146990.00
2022-10-02T16:49:43.132Z,146958.28
2022-10-02T16:52:24.738Z,146921.72
2022-10-02T16:55:14.704Z,146931.47
2022-10-02T16:57:41.674Z,146907.03
2022-10-02T17:00:34.003Z,146875.34
2022-10-02T17:03:05.645Z,146864.38
2022-10-02T17:05:53.316Z,146833.88
2022-10-02T17:08:31.287Z,146840.00
2022-10-02T17:11:25.813Z,146843.63
2022-10-02T17:14:01.713Z,146844.88
2022-10-02T17:16:52.666Z,146816.84
2022-10-02T17:19:45.636Z,146811.97
2022-10-02T17:22:33.155Z,146790.03
2022-10-02T17:25:06.780Z,146768.06
2022-10-02T17:28:01.668Z,146719.31
2022-10-02T17:30:44.583Z,146746.13
2022-10-02T17:33:15.005Z,146714.44
2022-10-02T17:35:41.858Z,146692.44
2022-10-02T17:38:39.637Z,146675.41
2022-10-02T17:41:12.698Z,146670.53
2022-10-02T17:44:08.382Z,146685.16
2022-10-02T17:46:50.685Z,146658.34
2022-10-02T17:49:58.919Z,146621.78
2022-10-02T17:52:50.794Z,146630.31
2022-10-02T17:55:48.833Z,146604.72
2022-10-02T17:58:39.947Z,146599.84
2022-10-02T18:01:40.524Z,146603.50
2022-10-02T18:04:28.858Z,146599.84
2022-10-02T18:07:04.910Z,146586.44
2022-10-02T18:09:40.132Z,146538.94
2022-10-02T18:12:30.773Z,146545.03
2022-10-02T18:15:06.474Z,146475.59
2022-10-02T18:17:54.698Z,146491.41
2022-10-02T18:20:40.894Z,146481.69
2022-10-02T18:23:17.097Z,146471.94
2022-10-02T18:26:05.119Z,146439.06
2022-10-02T18:29:08.048Z,146435.41
2022-10-02T18:31:57.681Z,146422.00
2022-10-02T18:34:58.420Z,146398.81
2022-10-02T18:37:37.876Z,146336.75
2022-10-02T18:40:30.147Z,146386.63
2022-10-02T18:43:25.105Z,146355.03
2022-10-02T18:46:16.487Z,146344.03
2022-10-02T18:49:14.058Z,146322.13
2022-10-02T18:51:56.084Z,146339.16
2022-10-02T18:55:04.487Z,146307.50
2022-10-02T18:57:55.134Z,146207.69
2022-10-02T19:00:25.152Z,146292.91
2022-10-02T19:03:36.734Z,146285.59
2022-10-02T19:06:19.513Z,146297.78
2022-10-02T19:09:19.148Z,146266.13
2022-10-02T19:11:57.879Z,146261.25
2022-10-02T19:14:41.749Z,146215.03
2022-10-02T19:17:21.895Z,146222.28
2022-10-02T19:19:48.933Z,146178.50
2022-10-02T19:22:21.152Z,146109.16
2022-10-02T19:24:52.553Z,146154.19
2022-10-02T19:27:31.040Z,146076.28
2022-10-02T19:30:05.183Z,146127.41
2022-10-02T19:32:51.942Z,146098.19
2022-10-02T19:35:28.391Z,146078.72
2022-10-02T19:38:09.256Z,146054.38
2022-10-02T19:40:36.954Z,146062.91
2022-10-02T19:43:09.389Z,146049.50
2022-10-02T19:45:42.532Z,145918.16
2022-10-02T19:48:10.831Z,146013.03
2022-10-02T19:50:45.611Z,145963.16
2022-10-02T19:53:23.329Z,145892.59
2022-10-02T19:55:55.816Z,145964.34
2022-10-02T19:58:35.793Z,145959.50
2022-10-02T20:01:06.331Z,145947.31
2022-10-02T20:03:34.631Z,145910.84
2022-10-02T20:06:13.988Z,145923.00
2022-10-02T20:08:45.198Z,145858.56
2022-10-02T20:11:26.680Z,145908.44
2022-10-02T20:14:01.978Z,145819.66
2022-10-02T20:16:47.872Z,145871.94
2022-10-02T20:19:19.812Z,145772.25
2022-10-02T20:21:55.538Z,145823.31
2022-10-02T20:25:03.622Z,145833.03
2022-10-02T20:27:45.795Z,145828.16
2022-10-02T20:30:18.814Z,145820.84
2022-10-02T20:32:53.212Z,145818.44
2022-10-02T20:35:29.183Z,145807.53
2022-10-02T20:38:01.302Z,145774.66
2022-10-02T20:40:32.420Z,145747.97
2022-10-02T20:43:11.513Z,145796.56
2022-10-02T20:45:59.482Z,145751.56
2022-10-02T20:49:07.580Z,145769.81
2022-10-02T20:52:14.272Z,145766.16
2022-10-02T20:55:06.378Z,145709.06
2022-10-02T20:58:01.504Z,145715.13
2022-10-02T21:01:02.461Z,145598.44
2022-10-02T21:03:35.504Z,145723.63
2022-10-02T21:06:43.116Z,145699.34
2022-10-02T21:09:27.426Z,145616.69
2022-10-02T21:12:15.740Z,145684.72
2022-10-02T21:15:09.001Z,145694.44
2022-10-02T21:17:54.349Z,145694.44
2022-10-02T21:20:51.312Z,145687.13
2022-10-02T21:23:55.782Z,145682.25
2022-10-02T21:26:44.049Z,145672.56
2022-10-02T21:29:53.085Z,145657.97
2022-10-02T21:32:57.517Z,145609.38
2022-10-02T21:35:42.450Z,145623.94
2022-10-02T21:38:42.828Z,145633.66
2022-10-02T21:41:21.926Z,145620.31
2022-10-02T21:44:37.356Z,145619.06
2022-10-02T21:47:26.158Z,145610.56
2022-10-02T21:50:11.816Z,145591.13
2022-10-02T21:53:00.877Z,145587.50
2022-10-02T21:55:51.270Z,145581.44
2022-10-02T21:58:43.004Z,145514.59
2022-10-02T22:02:04.091Z,145557.16
2022-10-02T22:04:57.000Z,145555.91
2022-10-02T22:07:33.334Z,145553.50
2022-10-02T22:10:03.351Z,145545.00
2022-10-02T22:13:09.255Z,145476.97
2022-10-02T22:15:57.683Z,145517.06
2022-10-02T22:18:41.122Z,145492.78
2022-10-02T22:21:33.765Z,145524.31
2022-10-02T22:24:08.940Z,145491.53
2022-10-02T22:26:57.694Z,145532.81
2022-10-02T22:29:54.902Z,145558.34
2022-10-02T22:32:50.757Z,145553.50
2022-10-02T22:35:48.730Z,145549.84
2022-10-02T22:38:32.078Z,145549.84
2022-10-02T22:41:05.693Z,145424.78
2022-10-02T22:43:46.760Z,145555.91
2022-10-02T22:46:25.911Z,145558.34
2022-10-02T22:49:04.622Z,145558.34
2022-10-02T22:51:42.854Z,145553.50
2022-10-02T22:54:28.098Z,145538.94
2022-10-02T22:57:12.699Z,145558.34
2022-10-02T22:59:45.891Z,145545.00
2022-10-02T23:02:28.867Z,145503.69
2022-10-02T23:05:05.741Z,145481.81
2022-10-02T23:07:50.712Z,145553.50
2022-10-02T23:10:55.035Z,145548.66
2022-10-02T23:13:26.756Z,145540.13
2022-10-02T23:16:23.353Z,145524.31
2022-10-02T23:19:15.612Z,145524.31
2022-10-02T23:22:01.756Z,145519.47
2022-10-02T23:24:47.290Z,145486.69
2022-10-02T23:27:20.985Z,145475.78
2022-10-02T23:30:09.906Z,145503.69
2022-10-02T23:32:47.646Z,145524.31
2022-10-02T23:35:39.159Z,145512.19
2022-10-02T23:38:19.451Z,145514.59
2022-10-02T23:41:26.928Z,145476.97
2022-10-02T23:44:12.021Z,145523.13
2022-10-02T23:46:48.751Z,145523.13
2022-10-02T23:49:23.852Z,145495.19
2022-10-02T23:52:09.644Z,145461.22
2022-10-02T23:54:54.985Z,145546.19
2022-10-02T23:57:32.941Z,145530.41
